Pagrindinis puslapis
METAR-TAF:

METAR-TAF

Oro uostai :

Colmar, Prancūzija

platuma: 48-06-37N, ilguma: 7-21-33E, Aukštis: 191 m

Dabartinis oras

Ataskaita buvo paskelbta 31 minutes, ne 07:00 UTC
Ramus vėjas
Temperatūra -1°C
Drėgmė 93%
Slėgis 1021 hPa
Matomumas: 0650 m
įšaldymas rūko

METAR: LFGA 250700Z AUTO 00000KT 0650 R19/0750N FZFG VV/// M01/M02 Q1021

Laikas: 08:31 (07:31 UTC)


TAF: trūkstamas

Orai ataskaitas ir orų prognozės (METAR, TAF).

turimą stotys yra geltonos ir raudonos taškus žemėlapyje.

Perkelti pele per norėdami pamatyti stoties vardą.

Tada spustelėkite, norėdami matyti oro stebėjimo ir prognozės.

Norėdami pakeisti žemėlapį: spustelėkite ant žalios mygtukų su juodo kryžiaus žemyn,; žalią mygtuką su brūkšneliu, jei norite nutolinti; arba žalių rodyklių gretimoms žemėlapius.


METAR-TAF: